Time;durP1;ratioP1;P1;durP2;ratioP2;P2;SDS_P1;SDS_P2;PMS_P1;PMS_P2;Temp;Humidity;BMP_temperature;BMP_pressure;BME280_temperature;BME280_humidity;BME280_pressure;Samples;Min_cycle;Max_cycle;Signal;HPM_P1;HPM_P2
2021/10/17 00:00:24;;;;;;;43.20;24.92;;;;;;;6.26;93.46;100980.13;5052563;28;20514;-65
2021/10/17 00:02:50;;;;;;;53.13;26.05;;;;;;;6.25;93.01;100973.06;5052288;28;20403;-64
2021/10/17 00:05:22;;;;;;;45.97;26.83;;;;;;;6.29;92.76;100974.63;5052788;28;20023;-64
2021/10/17 00:07:48;;;;;;;36.70;24.10;;;;;;;6.23;93.12;100959.00;5052020;28;20135;-63
2021/10/17 00:10:16;;;;;;;40.25;25.77;;;;;;;6.28;93.51;100965.75;5051281;28;20195;-64
2021/10/17 00:12:42;;;;;;;44.45;26.05;;;;;;;6.34;93.45;100977.84;5052861;28;20481;-64
2021/10/17 00:15:12;;;;;;;42.78;26.23;;;;;;;6.30;94.21;100979.00;5052174;28;20029;-64
2021/10/17 00:17:38;;;;;;;46.05;26.63;;;;;;;6.34;95.07;100984.03;5052374;28;20056;-65
2021/10/17 00:20:06;;;;;;;38.35;24.77;;;;;;;6.34;95.05;100977.84;5052711;28;20048;-64
2021/10/17 00:22:31;;;;;;;39.45;24.27;;;;;;;6.36;95.28;100976.78;5052344;28;20359;-65
2021/10/17 00:24:58;;;;;;;39.72;24.75;;;;;;;6.41;95.29;100988.06;5052278;28;20056;-64
2021/10/17 00:27:23;;;;;;;39.13;24.27;;;;;;;6.41;95.54;100977.41;5052477;28;20517;-65
2021/10/17 00:29:49;;;;;;;41.58;25.30;;;;;;;6.45;95.65;100986.06;5051064;28;20029;-65
2021/10/17 00:32:14;;;;;;;39.53;25.48;;;;;;;6.48;96.07;100977.91;5047564;28;20017;-65
2021/10/17 00:34:40;;;;;;;39.63;25.13;;;;;;;6.47;96.48;100976.16;5048953;28;20466;-65
2021/10/17 00:37:07;;;;;;;44.88;27.48;;;;;;;6.50;96.85;100973.31;5047984;28;20061;-63
2021/10/17 00:39:35;;;;;;;43.97;26.23;;;;;;;6.51;96.96;100969.69;5049318;28;20525;-64
2021/10/17 00:42:04;;;;;;;41.17;24.48;;;;;;;6.51;97.17;100972.34;5048955;28;20493;-64
2021/10/17 00:44:30;;;;;;;44.28;25.75;;;;;;;6.53;96.75;100968.66;5049087;28;20049;-64
2021/10/17 00:46:56;;;;;;;39.30;23.98;;;;;;;6.61;96.91;100976.19;5049175;28;20394;-65
2021/10/17 00:49:21;;;;;;;41.45;25.17;;;;;;;6.63;96.57;100974.28;5048992;28;20024;-63
2021/10/17 00:51:47;;;;;;;38.92;24.67;;;;;;;6.65;96.19;100975.88;5048575;28;20823;-64
2021/10/17 00:54:15;;;;;;;37.25;23.90;;;;;;;6.68;95.84;100978.38;5048939;28;20037;-64
2021/10/17 00:56:43;;;;;;;40.75;23.13;;;;;;;6.70;95.59;100971.16;5048515;28;20063;-65
2021/10/17 00:59:09;;;;;;;40.00;25.13;;;;;;;6.66;96.05;100968.75;5048083;28;20096;-65
2021/10/17 01:01:35;;;;;;;36.20;23.55;;;;;;;6.75;95.55;100979.69;5048852;28;20115;-65
2021/10/17 01:04:01;;;;;;;43.63;25.15;;;;;;;6.74;95.32;100974.50;5048610;28;20081;-65
2021/10/17 01:06:27;;;;;;;42.85;25.25;;;;;;;6.70;94.92;100971.16;5048974;28;20036;-65
2021/10/17 01:08:53;;;;;;;34.95;23.38;;;;;;;6.77;94.92;100968.94;5048556;28;20028;-65
2021/10/17 01:11:18;;;;;;;36.40;22.95;;;;;;;6.82;94.77;100972.19;5048522;28;20028;-65
2021/10/17 01:13:43;;;;;;;43.25;24.35;;;;;;;6.80;94.30;100964.28;5048156;28;20078;-65
2021/10/17 01:16:09;;;;;;;38.60;22.40;;;;;;;6.86;95.05;100971.91;5048972;28;20020;-64
2021/10/17 01:18:34;;;;;;;37.05;23.63;;;;;;;6.86;94.52;100961.25;5047058;28;20080;-63
2021/10/17 01:21:00;;;;;;;35.10;23.05;;;;;;;6.83;95.01;100969.44;5048522;28;20049;-64
2021/10/17 01:23:26;;;;;;;33.92;22.80;;;;;;;6.86;95.33;100969.25;5048510;28;20032;-63
2021/10/17 01:25:52;;;;;;;33.05;21.05;;;;;;;6.88;96.16;100967.34;5047827;28;20025;-64
2021/10/17 01:28:19;;;;;;;49.90;22.33;;;;;;;6.82;96.19;100948.19;5046852;28;20037;-64
2021/10/17 01:30:44;;;;;;;32.67;20.25;;;;;;;6.88;95.98;100958.50;5047836;28;20025;-65
2021/10/17 01:33:10;;;;;;;37.40;21.98;;;;;;;6.85;96.31;100948.88;5045804;28;20024;-63
2021/10/17 01:35:36;;;;;;;33.78;21.38;;;;;;;6.86;96.65;100939.91;5048103;28;20390;-66
2021/10/17 01:38:01;;;;;;;31.27;21.23;;;;;;;6.94;96.56;100958.94;5047898;28;20364;-64
2021/10/17 01:40:27;;;;;;;34.65;20.85;;;;;;;6.95;97.37;100941.16;5048077;28;20060;-64
2021/10/17 01:42:52;;;;;;;33.10;21.52;;;;;;;7.03;97.16;100950.38;5047751;28;20542;-63
2021/10/17 01:45:18;;;;;;;34.72;20.98;;;;;;;7.04;97.24;100945.91;5047629;28;20037;-64
2021/10/17 01:47:48;;;;;;;32.30;21.52;;;;;;;7.12;97.21;100954.25;5047464;28;20107;-63
2021/10/17 01:50:14;;;;;;;31.42;20.67;;;;;;;7.14;96.76;100951.50;5047755;28;20020;-64
2021/10/17 01:52:40;;;;;;;30.60;20.50;;;;;;;7.00;96.52;100926.56;5047533;28;20510;-66
2021/10/17 01:55:06;;;;;;;33.22;21.25;;;;;;;7.09;96.35;100946.44;5046290;28;20013;-64
2021/10/17 01:57:31;;;;;;;31.23;20.42;;;;;;;7.12;95.74;100953.44;5047433;28;20029;-64
2021/10/17 01:59:57;;;;;;;35.30;20.30;;;;;;;7.14;95.83;100943.50;5047675;28;20036;-64
2021/10/17 02:02:22;;;;;;;32.20;20.52;;;;;;;7.11;95.94;100941.91;5047647;28;20114;-64
2021/10/17 02:04:48;;;;;;;29.88;18.83;;;;;;;7.13;96.14;100942.66;5047085;28;20040;-64
2021/10/17 02:07:14;;;;;;;29.10;18.52;;;;;;;7.10;95.35;100940.19;5047058;28;20526;-65
2021/10/17 02:09:39;;;;;;;30.63;18.20;;;;;;;7.11;95.26;100944.56;5046853;28;20170;-63
2021/10/17 02:12:05;;;;;;;26.48;18.15;;;;;;;7.08;95.45;100934.09;5047525;28;20463;-64
2021/10/17 02:14:31;;;;;;;27.17;16.58;;;;;;;7.13;95.98;100947.13;5047217;28;20021;-65
2021/10/17 02:16:56;;;;;;;28.15;17.95;;;;;;;6.99;95.46;100924.88;5047138;28;20466;-64
2021/10/17 02:19:22;;;;;;;26.10;17.67;;;;;;;7.10;95.07;100942.84;5047485;28;20518;-63
2021/10/17 02:21:47;;;;;;;26.35;18.13;;;;;;;7.10;95.30;100942.84;5047140;28;20067;-64
2021/10/17 02:24:13;;;;;;;26.75;18.33;;;;;;;7.04;94.90;100928.06;5046863;28;20522;-65
2021/10/17 02:26:38;;;;;;;30.08;17.63;;;;;;;7.03;94.41;100936.16;5046977;28;20029;-64
2021/10/17 02:29:05;;;;;;;25.77;16.98;;;;;;;6.97;93.79;100929.41;5045902;28;20422;-66
2021/10/17 02:31:31;;;;;;;29.42;18.80;;;;;;;7.04;93.48;100945.91;5046912;28;20028;-65
2021/10/17 02:33:56;;;;;;;23.05;16.95;;;;;;;7.00;93.68;100947.91;5047133;28;20032;-65
2021/10/17 02:36:22;;;;;;;28.77;18.13;;;;;;;6.99;93.51;100948.00;5045705;28;20102;-64
2021/10/17 02:38:47;;;;;;;25.42;17.05;;;;;;;7.00;93.04;100944.41;5046987;28;20044;-65
2021/10/17 02:41:13;;;;;;;28.83;18.55;;;;;;;6.86;93.24;100931.94;5046832;28;20031;-63
2021/10/17 02:43:38;;;;;;;28.55;17.38;;;;;;;6.86;92.96;100929.25;5045925;28;20116;-64
2021/10/17 02:46:04;;;;;;;24.15;17.17;;;;;;;6.91;92.89;100944.97;5046068;28;20077;-65
2021/10/17 02:48:29;;;;;;;26.15;17.08;;;;;;;6.83;92.00;100926.78;5046900;28;20358;-65
2021/10/17 02:50:55;;;;;;;25.33;14.70;;;;;;;6.79;92.28;100929.72;5046368;28;20025;-65
2021/10/17 02:53:20;;;;;;;20.48;14.55;;;;;;;6.84;91.71;100943.66;5046140;28;20020;-64
2021/10/17 02:55:46;;;;;;;25.25;15.90;;;;;;;6.75;90.99;100939.72;5046369;28;20029;-64
2021/10/17 02:58:11;;;;;;;26.45;15.10;;;;;;;6.75;91.34;100947.72;5046613;28;20383;-64
2021/10/17 03:00:37;;;;;;;23.25;14.18;;;;;;;6.67;90.32;100941.16;5046227;28;20027;-64
2021/10/17 03:03:04;;;;;;;22.30;14.18;;;;;;;6.68;90.08;100946.38;5046549;28;20028;-64
2021/10/17 03:05:29;;;;;;;19.02;12.95;;;;;;;6.70;90.60;100943.63;5046719;28;20044;-64
2021/10/17 03:07:55;;;;;;;21.10;12.88;;;;;;;6.65;89.99;100941.25;5046107;28;20033;-63
2021/10/17 03:10:22;;;;;;;24.90;12.98;;;;;;;6.68;90.21;100951.72;5046285;28;20036;-64
2021/10/17 03:12:49;;;;;;;20.08;11.45;;;;;;;6.68;89.48;100945.56;5044733;28;20044;-64
2021/10/17 03:15:14;;;;;;;22.33;12.15;;;;;;;6.61;89.38;100936.22;5046416;28;20040;-63
2021/10/17 03:17:40;;;;;;;23.02;11.52;;;;;;;6.68;89.59;100957.03;5046206;28;20048;-64
2021/10/17 03:20:05;;;;;;;22.85;11.82;;;;;;;6.66;90.09;100942.09;5046227;28;20541;-64
2021/10/17 03:22:31;;;;;;;18.30;11.93;;;;;;;6.65;89.59;100949.22;5046455;28;20032;-64
2021/10/17 03:24:56;;;;;;;17.88;11.18;;;;;;;6.62;89.90;100941.44;5046308;28;20035;-64
2021/10/17 03:27:22;;;;;;;21.23;11.35;;;;;;;6.64;90.42;100939.53;5044084;28;20040;-63
2021/10/17 03:29:47;;;;;;;17.80;10.90;;;;;;;6.68;89.61;100948.22;5046260;28;20087;-64
2021/10/17 03:32:13;;;;;;;20.88;11.88;;;;;;;6.67;89.90;100950.00;5044504;28;20091;-64
2021/10/17 03:34:38;;;;;;;23.73;12.80;;;;;;;6.73;89.99;100951.44;5025955;28;20022;-64
2021/10/17 03:37:03;;;;;;;17.98;11.48;;;;;;;6.63;89.68;100932.50;5026243;28;20029;-65
2021/10/17 03:39:29;;;;;;;21.17;11.10;;;;;;;6.72;90.16;100939.06;5026749;28;20407;-65
2021/10/17 03:41:54;;;;;;;25.73;11.93;;;;;;;6.79;90.04;100961.72;5025296;28;20032;-64
2021/10/17 03:44:20;;;;;;;18.58;12.23;;;;;;;6.79;90.04;100961.72;5023300;28;20442;-64
2021/10/17 03:46:45;;;;;;;23.15;12.77;;;;;;;6.74;90.17;100954.00;5016141;28;20046;-65
2021/10/17 03:49:11;;;;;;;19.40;12.65;;;;;;;6.73;90.05;100960.28;5024217;28;20836;-65
2021/10/17 03:51:36;;;;;;;23.65;13.90;;;;;;;6.72;90.32;100958.59;5018761;28;20437;-65
2021/10/17 03:54:01;;;;;;;20.63;12.88;;;;;;;6.76;90.09;100965.44;5021254;28;20072;-65
2021/10/17 03:56:27;;;;;;;23.48;14.07;;;;;;;6.73;89.52;100959.44;5031600;28;20042;-64
2021/10/17 03:58:52;;;;;;;19.67;13.60;;;;;;;6.77;89.04;100967.16;5021036;28;20120;-64
2021/10/17 04:01:18;;;;;;;22.70;14.63;;;;;;;6.69;88.92;100960.56;5027121;28;20112;-63
2021/10/17 04:03:43;;;;;;;24.60;15.38;;;;;;;6.72;88.92;100969.25;5032300;28;20086;-65
2021/10/17 04:06:09;;;;;;;27.27;13.95;;;;;;;6.71;88.86;100961.34;5018985;28;20539;-64
2021/10/17 04:08:35;;;;;;;22.48;14.63;;;;;;;6.64;89.54;100952.00;5022584;28;20034;-64
2021/10/17 04:11:00;;;;;;;23.63;14.50;;;;;;;6.60;89.96;100964.66;5033471;28;20030;-65
2021/10/17 04:13:26;;;;;;;21.70;14.52;;;;;;;6.62;90.47;100973.41;5023827;28;20017;-64
2021/10/17 04:15:51;;;;;;;25.30;14.68;;;;;;;6.54;91.06;100967.72;5031279;28;20032;-65
2021/10/17 04:18:17;;;;;;;21.90;13.65;;;;;;;6.55;91.52;100973.91;5049618;28;20378;-63
2021/10/17 04:20:43;;;;;;;24.83;14.18;;;;;;;6.55;90.86;100981.91;5049071;28;20029;-63
2021/10/17 04:23:08;;;;;;;25.52;14.05;;;;;;;6.51;90.91;100977.69;5049523;28;20440;-63
2021/10/17 04:25:34;;;;;;;27.33;14.27;;;;;;;6.28;90.31;100935.59;5047092;28;20037;-63
2021/10/17 04:28:00;;;;;;;27.08;14.50;;;;;;;6.47;90.48;100979.69;5049605;28;20090;-65
2021/10/17 04:30:27;;;;;;;22.40;14.45;;;;;;;6.43;90.65;100975.50;5049051;28;20025;-65
2021/10/17 04:32:52;;;;;;;24.23;13.77;;;;;;;6.31;91.50;100964.72;5047604;28;20055;-63
2021/10/17 04:35:17;;;;;;;22.98;15.13;;;;;;;6.27;91.66;100968.50;5049264;28;20438;-63
2021/10/17 04:37:43;;;;;;;23.23;14.43;;;;;;;6.29;92.05;100980.78;5048851;28;20356;-64
2021/10/17 04:40:09;;;;;;;23.98;15.23;;;;;;;6.19;91.98;100971.63;5035880;28;20391;-65
2021/10/17 04:42:35;;;;;;;28.10;15.00;;;;;;;6.24;92.53;100982.00;5028618;28;20384;-63
2021/10/17 04:45:03;;;;;;;31.92;15.35;;;;;;;6.23;93.08;100988.31;5028516;28;20041;-65
2021/10/17 04:47:28;;;;;;;22.25;14.07;;;;;;;6.19;92.96;100984.94;5029036;28;20124;-65
2021/10/17 04:49:54;;;;;;;25.33;14.18;;;;;;;6.20;92.70;100981.34;5047000;28;20449;-64
2021/10/17 04:52:19;;;;;;;22.73;14.32;;;;;;;6.17;91.97;100978.88;5048898;28;20025;-64
2021/10/17 04:54:45;;;;;;;22.33;14.30;;;;;;;6.22;92.42;100995.41;5048729;28;20028;-63
2021/10/17 04:57:10;;;;;;;24.67;14.93;;;;;;;6.20;91.55;100981.34;5047169;28;20194;-64
2021/10/17 04:59:36;;;;;;;23.15;14.57;;;;;;;6.18;91.97;100982.38;5048758;28;20025;-64
2021/10/17 05:02:02;;;;;;;24.98;14.55;;;;;;;6.24;91.38;101001.53;5048227;28;20013;-65
2021/10/17 05:04:28;;;;;;;23.38;13.75;;;;;;;6.19;92.16;100995.59;5049075;28;20872;-65
2021/10/17 05:06:54;;;;;;;22.30;13.68;;;;;;;6.23;92.76;101004.28;5048178;28;20115;-65
2021/10/17 05:09:19;;;;;;;22.75;14.13;;;;;;;6.23;93.44;100998.94;5033183;28;20075;-64
2021/10/17 05:11:44;;;;;;;23.33;14.60;;;;;;;6.25;93.35;101003.22;5025682;28;20479;-64
2021/10/17 05:14:10;;;;;;;23.92;13.57;;;;;;;6.25;93.80;100997.91;5025993;28;20036;-64
2021/10/17 05:16:35;;;;;;;20.25;13.90;;;;;;;6.30;93.72;101010.94;5027163;28;20040;-64
2021/10/17 05:19:02;;;;;;;23.50;14.07;;;;;;;6.28;93.05;101012.84;5025441;28;20033;-65
2021/10/17 05:21:28;;;;;;;23.65;14.77;;;;;;;6.16;93.50;100986.94;5027598;28;20029;-65
2021/10/17 05:23:57;;;;;;;23.08;13.15;;;;;;;6.33;93.50;101019.63;5027389;28;20130;-65
2021/10/17 05:26:23;;;;;;;19.35;12.48;;;;;;;6.31;93.53;101008.19;5027671;28;20424;-65
2021/10/17 05:28:48;;;;;;;23.35;14.38;;;;;;;6.29;93.77;101004.75;5026375;28;20041;-64
2021/10/17 05:31:14;;;;;;;21.88;13.32;;;;;;;6.40;94.44;101013.00;5024005;28;20104;-64
2021/10/17 05:33:39;;;;;;;23.55;13.55;;;;;;;6.38;94.00;101014.00;5027405;28;20029;-65
2021/10/17 05:36:06;;;;;;;25.10;13.73;;;;;;;6.42;93.42;101018.22;5027149;28;20052;-65
2021/10/17 05:38:31;;;;;;;23.23;13.70;;;;;;;6.55;93.91;101025.38;5027879;28;20063;-64
2021/10/17 05:40:57;;;;;;;24.63;15.05;;;;;;;6.54;93.35;101023.66;5026968;28;20033;-64
2021/10/17 05:43:23;;;;;;;26.63;15.02;;;;;;;6.55;93.32;101025.38;5026086;28;20517;-64
2021/10/17 05:45:48;;;;;;;30.50;14.95;;;;;;;6.63;93.55;101032.91;5026584;28;20049;-63
2021/10/17 05:48:15;;;;;;;27.52;15.73;;;;;;;6.65;93.41;101036.34;5025614;28;20107;-64
2021/10/17 05:50:40;;;;;;;24.25;15.57;;;;;;;6.72;92.84;101041.22;5027139;28;20799;-64
2021/10/17 05:53:06;;;;;;;24.00;14.57;;;;;;;6.74;92.50;101038.47;5027089;28;20037;-63
2021/10/17 05:55:32;;;;;;;29.73;15.73;;;;;;;6.72;93.05;101027.91;5027502;28;20056;-65
2021/10/17 05:57:57;;;;;;;29.30;16.10;;;;;;;6.77;93.14;101035.59;5023129;28;20113;-64
2021/10/17 06:00:23;;;;;;;27.70;16.25;;;;;;;6.86;93.33;101035.91;5018029;28;20063;-65
2021/10/17 06:02:49;;;;;;;23.05;15.25;;;;;;;6.93;93.85;101052.38;5009750;28;20052;-65
2021/10/17 06:05:15;;;;;;;26.60;15.70;;;;;;;6.94;93.12;101043.44;5024404;28;20451;-65
2021/10/17 06:07:41;;;;;;;34.90;18.17;;;;;;;6.93;93.32;101039.03;5024702;28;20041;-65
2021/10/17 06:10:09;;;;;;;34.72;17.17;;;;;;;6.98;92.78;101031.63;5025431;28;20544;-65
2021/10/17 06:12:39;;;;;;;34.58;17.08;;;;;;;7.06;92.88;101047.16;5025935;28;20031;-65
2021/10/17 06:15:05;;;;;;;36.72;20.02;;;;;;;7.06;92.21;101036.50;5024775;28;20580;-64
2021/10/17 06:17:31;;;;;;;34.33;19.02;;;;;;;7.14;92.16;101043.06;5024951;28;20087;-65
2021/10/17 06:19:57;;;;;;;38.08;19.85;;;;;;;7.19;91.75;101048.94;5023753;28;20032;-64
2021/10/17 06:22:22;;;;;;;35.40;19.48;;;;;;;7.20;91.77;101040.00;5025959;28;20024;-65
2021/10/17 06:24:48;;;;;;;32.60;18.27;;;;;;;7.24;91.32;101046.00;5020093;28;20050;-64
2021/10/17 06:27:14;;;;;;;36.20;20.23;;;;;;;7.30;91.70;101046.47;5022114;28;20110;-64
2021/10/17 06:29:39;;;;;;;40.05;19.95;;;;;;;7.24;91.64;101027.31;5031038;28;20105;-65
2021/10/17 06:32:06;;;;;;;33.55;17.58;;;;;;;7.37;91.52;101046.94;5021999;28;20115;-65
2021/10/17 06:34:31;;;;;;;31.92;18.85;;;;;;;7.50;91.42;101050.53;5023798;28;20038;-64
2021/10/17 06:36:57;;;;;;;33.67;17.88;;;;;;;7.55;91.89;101053.78;5021605;28;20645;-64
2021/10/17 06:39:22;;;;;;;30.48;18.15;;;;;;;7.68;91.30;101052.06;5023197;28;20094;-65
2021/10/17 06:41:48;;;;;;;30.30;15.70;;;;;;;7.77;90.54;101057.66;5023675;28;20454;-64
2021/10/17 06:44:14;;;;;;;25.98;15.65;;;;;;;7.87;89.72;101056.09;5020607;28;20072;-63
2021/10/17 06:46:39;;;;;;;30.42;15.77;;;;;;;7.96;89.57;101058.16;5020923;28;20094;-64
2021/10/17 06:49:05;;;;;;;27.95;15.52;;;;;;;8.07;89.01;101052.13;5023268;28;20049;-64
2021/10/17 06:51:30;;;;;;;26.38;15.20;;;;;;;8.18;88.27;101061.16;5024431;28;20029;-64
2021/10/17 06:53:56;;;;;;;28.13;16.70;;;;;;;8.27;88.21;101070.41;5036718;28;20444;-65
2021/10/17 06:56:21;;;;;;;24.20;14.10;;;;;;;8.39;87.44;101064.25;5021752;28;20037;-65
2021/10/17 06:58:47;;;;;;;23.63;14.23;;;;;;;8.48;85.89;101066.31;5028428;28;20033;-65
2021/10/17 07:01:13;;;;;;;29.27;16.17;;;;;;;8.57;85.84;101060.31;5020609;28;20040;-65
2021/10/17 07:03:39;;;;;;;29.15;16.00;;;;;;;8.76;86.00;101068.81;5023408;28;20086;-65
2021/10/17 07:06:07;;;;;;;26.63;15.20;;;;;;;8.93;85.66;101068.50;5022776;28;20029;-63
2021/10/17 07:08:33;;;;;;;25.58;13.63;;;;;;;9.13;81.82;101071.50;5023344;28;20487;-65
2021/10/17 07:10:59;;;;;;;30.15;16.13;;;;;;;9.27;79.97;101067.88;5022063;28;20044;-64
2021/10/17 07:13:25;;;;;;;19.15;12.32;;;;;;;9.44;77.97;101077.41;5029368;28;20032;-64
2021/10/17 07:15:50;;;;;;;25.02;12.23;;;;;;;9.56;75.89;101060.44;5038289;28;20044;-65
2021/10/17 07:18:16;;;;;;;21.38;13.48;;;;;;;9.71;74.77;101054.84;5044345;28;20320;-64
2021/10/17 07:20:41;;;;;;;25.35;13.48;;;;;;;10.01;74.22;101078.53;5043717;28;20037;-64
2021/10/17 07:23:07;;;;;;;22.75;11.93;;;;;;;10.09;72.76;101052.91;5037307;28;20456;-64
2021/10/17 07:25:33;;;;;;;20.55;12.30;;;;;;;10.61;72.41;101065.94;5026937;28;20049;-63
2021/10/17 07:27:58;;;;;;;16.92;11.95;;;;;;;11.26;69.22;101065.22;5043161;28;20061;-64
2021/10/17 07:30:24;;;;;;;24.60;12.88;;;;;;;12.02;64.62;101057.25;5043198;28;20041;-64
2021/10/17 07:32:49;;;;;;;17.77;11.70;;;;;;;12.80;61.94;101047.88;5044335;28;20048;-64
2021/10/17 07:35:15;;;;;;;24.45;12.73;;;;;;;13.67;58.83;101050.94;5034467;28;20060;-65
2021/10/17 07:37:40;;;;;;;18.33;11.63;;;;;;;14.57;55.42;101047.16;5022702;28;20495;-66
2021/10/17 07:40:07;;;;;;;16.98;11.75;;;;;;;15.28;53.18;101035.78;5022210;28;20040;-65
2021/10/17 07:42:33;;;;;;;18.70;10.85;;;;;;;15.98;50.71;101037.91;5024704;28;20041;-64
2021/10/17 07:44:58;;;;;;;14.65;10.45;;;;;;;16.59;49.07;101028.09;5024159;28;20195;-65
2021/10/17 07:47:24;;;;;;;16.17;10.63;;;;;;;17.34;46.65;101043.72;5032153;28;20562;-65
2021/10/17 07:49:51;;;;;;;14.32;9.88;;;;;;;17.87;45.42;101044.38;5045994;28;20115;-63
2021/10/17 07:52:16;;;;;;;14.93;10.52;;;;;;;18.31;44.21;101035.00;5047111;28;20368;-65
2021/10/17 07:54:41;;;;;;;17.05;10.68;;;;;;;18.58;43.12;101031.16;5046385;28;20032;-66
2021/10/17 07:57:10;;;;;;;14.57;10.15;;;;;;;18.12;43.86;101034.44;5047103;28;20472;-65
2021/10/17 07:59:37;;;;;;;15.40;11.10;;;;;;;17.73;45.54;101048.56;5031494;28;20111;-64
2021/10/17 08:02:02;;;;;;;16.50;11.45;;;;;;;17.19;46.65;101042.63;5026297;28;20641;-68
2021/10/17 08:04:28;;;;;;;15.98;11.50;;;;;;;16.64;47.91;101046.59;5027826;28;20108;-65
2021/10/17 08:06:56;;;;;;;18.45;10.25;;;;;;;16.13;48.18;101032.84;5036406;28;20033;-65
2021/10/17 08:09:22;;;;;;;15.68;10.30;;;;;;;15.76;49.24;101065.38;5035069;28;20029;-65
2021/10/17 08:11:47;;;;;;;14.65;9.10;;;;;;;15.30;49.81;101055.44;5026500;28;20038;-66
2021/10/17 08:14:13;;;;;;;16.75;10.35;;;;;;;14.93;50.10;101059.91;5026076;28;20159;-66
2021/10/17 08:16:38;;;;;;;15.32;9.98;;;;;;;14.67;51.12;101060.66;5025630;28;20040;-63
2021/10/17 08:19:04;;;;;;;11.65;8.93;;;;;;;14.39;51.45;101062.34;5026559;28;20041;-64
2021/10/17 08:21:30;;;;;;;13.65;9.70;;;;;;;14.10;53.09;101053.34;5031029;28;20033;-64
2021/10/17 08:23:56;;;;;;;16.63;9.65;;;;;;;13.87;53.30;101057.25;5026121;28;20415;-65
2021/10/17 08:26:22;;;;;;;16.92;9.60;;;;;;;13.77;53.60;101065.31;5025953;28;20467;-64
2021/10/17 08:28:48;;;;;;;17.50;10.05;;;;;;;13.67;53.95;101071.66;5026556;28;20092;-64
2021/10/17 08:31:13;;;;;;;16.15;8.90;;;;;;;13.47;54.15;101067.16;5026495;28;20467;-64
2021/10/17 08:33:39;;;;;;;18.70;10.43;;;;;;;13.31;54.76;101061.41;5027529;28;20407;-63
2021/10/17 08:36:04;;;;;;;17.77;9.38;;;;;;;13.25;55.03;101070.03;5026064;28;20079;-62
2021/10/17 08:38:30;;;;;;;19.25;9.57;;;;;;;13.13;55.17;101071.09;5029607;28;20046;-63
2021/10/17 08:40:56;;;;;;;16.33;9.65;;;;;;;13.03;55.04;101067.50;5046064;28;20025;-63
2021/10/17 08:43:22;;;;;;;16.73;9.68;;;;;;;13.01;56.09;101078.41;5035346;28;20103;-65
2021/10/17 08:45:48;;;;;;;15.52;10.10;;;;;;;12.90;56.10;101064.13;5045958;28;20140;-64
2021/10/17 08:48:14;;;;;;;17.05;9.32;;;;;;;12.96;56.35;101072.50;5045703;28;20479;-65
2021/10/17 08:50:41;;;;;;;14.25;8.93;;;;;;;12.83;56.70;101054.88;5031255;28;20075;-65
2021/10/17 08:53:08;;;;;;;17.60;9.32;;;;;;;12.95;56.87;101062.75;5025420;28;20048;-64
2021/10/17 08:55:34;;;;;;;13.20;8.30;;;;;;;13.06;56.61;101068.06;5026921;28;20029;-64
2021/10/17 08:57:59;;;;;;;15.15;8.60;;;;;;;13.17;55.88;101068.03;5038553;28;20033;-64
2021/10/17 09:00:33;;;;;;;13.77;8.95;;;;;;;13.32;55.16;101069.38;5025933;28;20033;-63
2021/10/17 09:02:59;;;;;;;14.73;9.27;;;;;;;13.42;54.64;101061.34;5025186;28;20040;-64
2021/10/17 09:05:34;;;;;;;17.20;9.27;;;;;;;13.72;53.73;101072.09;5025183;28;20397;-63
2021/10/17 09:08:00;;;;;;;16.38;9.50;;;;;;;14.04;53.32;101066.50;5024357;28;20021;-62
2021/10/17 09:10:25;;;;;;;17.95;9.32;;;;;;;14.50;52.56;101064.91;5026899;28;20037;-65
2021/10/17 09:12:51;;;;;;;13.23;8.52;;;;;;;15.69;50.10;101065.13;5023549;28;20079;-63
2021/10/17 09:15:36;;;;;;;20.08;9.68;;;;;;;17.76;45.82;101058.22;5024167;28;20041;-64
2021/10/17 09:18:22;;;;;;;11.85;8.52;;;;;;;19.73;40.83;101050.56;5024227;28;20037;-64
2021/10/17 09:20:48;;;;;;;16.02;8.07;;;;;;;21.71;36.78;101033.06;5025457;28;20091;-64
2021/10/17 09:23:36;;;;;;;14.43;7.88;;;;;;;23.54;33.19;101028.50;5028429;28;20021;-63
2021/10/17 09:26:08;;;;;;;14.63;8.35;;;;;;;24.99;30.81;101011.53;5033967;28;20025;-63
2021/10/17 09:28:33;;;;;;;11.23;8.02;;;;;;;26.07;29.39;101002.47;5025286;28;20041;-62
2021/10/17 09:31:07;;;;;;;12.25;8.27;;;;;;;27.20;27.86;101013.34;5024033;28;20036;-64
2021/10/17 09:33:41;;;;;;;13.75;8.00;;;;;;;27.99;26.52;101010.66;5022929;28;20528;-63
2021/10/17 09:36:21;;;;;;;15.93;8.15;;;;;;;28.54;25.46;100999.28;5024044;28;20022;-63
2021/10/17 09:38:50;;;;;;;13.18;8.10;;;;;;;28.95;25.20;100992.91;5024704;28;20407;-63
2021/10/17 09:41:32;;;;;;;12.68;8.43;;;;;;;29.23;24.94;101000.53;5025199;28;20021;-64
2021/10/17 09:43:59;;;;;;;13.07;7.82;;;;;;;29.70;24.15;100994.78;5021514;28;20666;-64
2021/10/17 09:46:26;;;;;;;13.50;8.18;;;;;;;30.00;24.10;100998.19;5025137;28;20030;-63
2021/10/17 09:48:52;;;;;;;14.27;8.27;;;;;;;30.11;23.91;100989.00;5044283;28;20021;-64
2021/10/17 09:51:23;;;;;;;11.02;7.68;;;;;;;30.26;23.93;100985.72;5030732;28;20045;-64
2021/10/17 09:53:50;;;;;;;11.07;7.95;;;;;;;30.29;23.75;100982.47;5040536;28;20039;-63
2021/10/17 09:56:50;;;;;;;9.75;7.88;;;;;;;30.55;23.26;100984.63;5025397;28;20022;-63
2021/10/17 09:59:16;;;;;;;9.55;7.55;;;;;;;31.13;22.81;100982.34;5000835;28;20096;-64
2021/10/17 10:01:42;;;;;;;12.73;8.25;;;;;;;31.31;22.33;100975.75;5033916;28;20045;-64
2021/10/17 10:04:10;;;;;;;10.55;7.65;;;;;;;31.16;22.66;100981.00;5036891;28;20041;-63
2021/10/17 10:06:36;;;;;;;9.93;7.13;;;;;;;30.47;23.19;100982.28;5029206;28;20034;-63
2021/10/17 10:09:09;;;;;;;9.30;7.50;;;;;;;29.92;23.92;100990.25;5023044;28;20109;-63
2021/10/17 10:11:36;;;;;;;12.80;8.07;;;;;;;29.19;24.24;100980.00;5023995;28;20041;-63
2021/10/17 10:14:05;;;;;;;12.18;8.20;;;;;;;27.78;25.65;100980.75;5033456;28;20378;-64
2021/10/17 10:16:33;;;;;;;11.32;7.88;;;;;;;26.24;27.72;100984.38;5022106;28;20099;-64
2021/10/17 10:19:00;;;;;;;12.35;7.97;;;;;;;25.06;29.48;100990.41;5023066;28;20029;-64
2021/10/17 10:21:27;;;;;;;12.60;8.00;;;;;;;23.85;31.36;101004.22;5035022;28;20037;-63
2021/10/17 10:23:55;;;;;;;12.00;8.10;;;;;;;22.81;32.97;100998.03;5032024;28;20529;-63
2021/10/17 10:26:23;;;;;;;12.50;7.63;;;;;;;21.82;34.76;101002.56;5022370;28;20376;-63
2021/10/17 10:28:50;;;;;;;10.95;8.40;;;;;;;21.06;35.67;101002.06;5022247;28;20513;-62
2021/10/17 10:31:42;;;;;;;11.88;7.88;;;;;;;20.19;37.31;101008.84;5021686;28;20115;-63
2021/10/17 10:34:09;;;;;;;13.05;8.32;;;;;;;19.61;38.61;101016.59;5020754;28;20046;-62
2021/10/17 10:36:40;;;;;;;12.30;7.97;;;;;;;19.06;39.51;101010.22;5019183;28;20033;-64
2021/10/17 10:39:07;;;;;;;11.82;7.47;;;;;;;18.57;40.63;101005.84;5024182;28;20104;-63
2021/10/17 10:42:03;;;;;;;11.85;8.35;;;;;;;18.20;41.28;101018.16;5024112;28;20514;-63
2021/10/17 10:44:32;;;;;;;12.52;8.93;;;;;;;17.82;42.58;101006.88;5019133;28;20064;-62
2021/10/17 10:46:59;;;;;;;15.88;8.45;;;;;;;17.51;42.92;101003.00;5023744;28;20052;-62
2021/10/17 10:49:37;;;;;;;12.07;7.95;;;;;;;17.30;43.77;101010.66;5025254;28;20017;-63
2021/10/17 10:52:03;;;;;;;13.35;8.85;;;;;;;17.03;43.89;100994.56;5023552;28;20045;-63
2021/10/17 10:54:28;;;;;;;11.20;8.32;;;;;;;16.91;44.66;101009.41;5023779;28;20083;-64
2021/10/17 10:56:56;;;;;;;15.75;9.10;;;;;;;16.75;44.66;101005.69;5022573;28;20037;-62
2021/10/17 10:59:29;;;;;;;12.57;8.60;;;;;;;16.60;45.49;101001.88;5018898;28;20112;-64
2021/10/17 11:02:37;;;;;;;15.18;8.30;;;;;;;16.48;45.70;101008.53;5022178;28;20041;-62
2021/10/17 11:04:59;;;;;;;13.05;8.35;;;;;;;16.32;45.75;100998.38;5021867;28;20179;-63
2021/10/17 11:07:35;;;;;;;13.55;7.93;;;;;;;16.22;45.77;100999.44;5023454;28;20041;-62
2021/10/17 11:10:22;;;;;;;10.30;7.13;;;;;;;16.18;45.84;100998.06;5023067;28;20517;-64
2021/10/17 11:12:57;;;;;;;12.30;7.45;;;;;;;16.10;46.47;100998.81;5030337;28;20043;-63
2021/10/17 11:15:26;;;;;;;12.20;7.75;;;;;;;15.90;46.73;100976.44;5043490;28;20443;-62